sensor_id;sensor_type;location;lat;lon;timestamp;temperature;humidity
10276;DHT22;5183;51.190;6.820;2023-03-01T00:00:52;-1.10;1.00
10276;DHT22;5183;51.190;6.820;2023-03-01T00:03:19;-1.00;1.00
10276;DHT22;5183;51.190;6.820;2023-03-01T00:05:46;-1.10;1.00
10276;DHT22;5183;51.190;6.820;2023-03-01T00:08:14;-1.10;1.00
10276;DHT22;5183;51.190;6.820;2023-03-01T00:10:41;-1.10;1.00
10276;DHT22;5183;51.190;6.820;2023-03-01T00:13:08;-1.00;1.00
10276;DHT22;5183;51.190;6.820;2023-03-01T00:15:38;-1.10;1.00
10276;DHT22;5183;51.190;6.820;2023-03-01T00:18:05;-1.00;1.00
10276;DHT22;5183;51.190;6.820;2023-03-01T00:20:32;-1.00;1.00
10276;DHT22;5183;51.190;6.820;2023-03-01T00:22:58;-1.00;1.00
10276;DHT22;5183;51.190;6.820;2023-03-01T00:25:27;-1.00;1.00
10276;DHT22;5183;51.190;6.820;2023-03-01T00:27:53;-1.00;1.00
10276;DHT22;5183;51.190;6.820;2023-03-01T00:30:20;-1.00;1.00
10276;DHT22;5183;51.190;6.820;2023-03-01T00:32:47;-1.10;1.00
10276;DHT22;5183;51.190;6.820;2023-03-01T00:35:14;-1.10;1.00
10276;DHT22;5183;51.190;6.820;2023-03-01T00:37:41;-1.20;1.00
10276;DHT22;5183;51.190;6.820;2023-03-01T00:40:08;-1.20;1.00
10276;DHT22;5183;51.190;6.820;2023-03-01T00:42:37;-1.20;1.00
10276;DHT22;5183;51.190;6.820;2023-03-01T00:45:05;-1.20;1.00
10276;DHT22;5183;51.190;6.820;2023-03-01T00:47:33;-1.30;1.00
10276;DHT22;5183;51.190;6.820;2023-03-01T00:50:00;-1.40;1.00
10276;DHT22;5183;51.190;6.820;2023-03-01T00:52:26;-1.40;1.00
10276;DHT22;5183;51.190;6.820;2023-03-01T00:54:53;-1.50;1.00
10276;DHT22;5183;51.190;6.820;2023-03-01T00:57:20;-1.50;1.00
10276;DHT22;5183;51.190;6.820;2023-03-01T00:59:48;-1.50;1.00
10276;DHT22;5183;51.190;6.820;2023-03-01T01:02:15;-1.60;1.00
10276;DHT22;5183;51.190;6.820;2023-03-01T01:04:42;-1.70;1.00
10276;DHT22;5183;51.190;6.820;2023-03-01T01:07:09;-1.80;1.00
10276;DHT22;5183;51.190;6.820;2023-03-01T01:09:35;-1.80;1.00
10276;DHT22;5183;51.190;6.820;2023-03-01T01:12:03;-1.80;1.00
10276;DHT22;5183;51.190;6.820;2023-03-01T01:14:30;-1.80;1.00
10276;DHT22;5183;51.190;6.820;2023-03-01T01:16:58;-1.70;1.00
10276;DHT22;5183;51.190;6.820;2023-03-01T01:19:25;-1.70;1.00
10276;DHT22;5183;51.190;6.820;2023-03-01T01:21:52;-1.70;1.00
10276;DHT22;5183;51.190;6.820;2023-03-01T01:24:19;-1.70;1.00
10276;DHT22;5183;51.190;6.820;2023-03-01T01:26:46;-1.80;1.00
10276;DHT22;5183;51.190;6.820;2023-03-01T01:29:13;-1.90;1.00
10276;DHT22;5183;51.190;6.820;2023-03-01T01:31:41;-1.90;1.00
10276;DHT22;5183;51.190;6.820;2023-03-01T01:34:14;-1.90;1.00
10276;DHT22;5183;51.190;6.820;2023-03-01T01:36:41;-1.90;1.00
10276;DHT22;5183;51.190;6.820;2023-03-01T01:39:07;-2.00;1.00
10276;DHT22;5183;51.190;6.820;2023-03-01T01:41:39;-2.10;1.00
10276;DHT22;5183;51.190;6.820;2023-03-01T01:44:14;-2.10;1.00
10276;DHT22;5183;51.190;6.820;2023-03-01T01:46:42;-2.20;1.00
10276;DHT22;5183;51.190;6.820;2023-03-01T01:49:19;-2.20;1.00
10276;DHT22;5183;51.190;6.820;2023-03-01T01:51:52;-2.20;1.00
10276;DHT22;5183;51.190;6.820;2023-03-01T01:54:25;-2.20;1.00
10276;DHT22;5183;51.190;6.820;2023-03-01T01:56:56;-2.30;1.00
10276;DHT22;5183;51.190;6.820;2023-03-01T01:59:27;-2.30;1.00
10276;DHT22;5183;51.190;6.820;2023-03-01T02:01:55;-2.30;1.20
10276;DHT22;5183;51.190;6.820;2023-03-01T02:04:24;-2.30;6.70
10276;DHT22;5183;51.190;6.820;2023-03-01T02:06:55;-2.30;10.60
10276;DHT22;5183;51.190;6.820;2023-03-01T02:09:24;-2.30;20.10
10276;DHT22;5183;51.190;6.820;2023-03-01T02:11:52;-2.40;1.00
10276;DHT22;5183;51.190;6.820;2023-03-01T02:14:20;-2.40;7.60
10276;DHT22;5183;51.190;6.820;2023-03-01T02:16:47;-2.40;5.10
10276;DHT22;5183;51.190;6.820;2023-03-01T02:19:26;-2.50;13.10
10276;DHT22;5183;51.190;6.820;2023-03-01T02:22:02;-2.50;18.70
10276;DHT22;5183;51.190;6.820;2023-03-01T02:24:37;-2.30;17.30
10276;DHT22;5183;51.190;6.820;2023-03-01T02:27:09;-2.30;13.90
10276;DHT22;5183;51.190;6.820;2023-03-01T02:29:38;-2.20;7.60
10276;DHT22;5183;51.190;6.820;2023-03-01T02:32:06;-2.20;2.70
10276;DHT22;5183;51.190;6.820;2023-03-01T02:34:32;-2.30;1.00
10276;DHT22;5183;51.190;6.820;2023-03-01T02:37:02;-2.20;4.80
10276;DHT22;5183;51.190;6.820;2023-03-01T02:39:33;-2.30;1.00
10276;DHT22;5183;51.190;6.820;2023-03-01T02:42:01;-2.30;1.00
10276;DHT22;5183;51.190;6.820;2023-03-01T02:44:29;-2.30;4.10
10276;DHT22;5183;51.190;6.820;2023-03-01T02:46:58;-2.20;1.00
10276;DHT22;5183;51.190;6.820;2023-03-01T02:49:29;-2.20;1.00
10276;DHT22;5183;51.190;6.820;2023-03-01T02:52:18;-2.30;1.00
10276;DHT22;5183;51.190;6.820;2023-03-01T02:54:51;-2.30;1.00
10276;DHT22;5183;51.190;6.820;2023-03-01T02:57:19;-2.40;1.00
10276;DHT22;5183;51.190;6.820;2023-03-01T02:59:48;-2.50;1.80
10276;DHT22;5183;51.190;6.820;2023-03-01T03:02:25;-2.50;4.10
10276;DHT22;5183;51.190;6.820;2023-03-01T03:05:03;-2.50;18.60
10276;DHT22;5183;51.190;6.820;2023-03-01T03:07:32;-2.60;11.50
10276;DHT22;5183;51.190;6.820;2023-03-01T03:09:59;-2.60;19.30
10276;DHT22;5183;51.190;6.820;2023-03-01T03:12:26;-2.60;25.30
10276;DHT22;5183;51.190;6.820;2023-03-01T03:14:53;-2.50;27.30
10276;DHT22;5183;51.190;6.820;2023-03-01T03:17:21;-2.40;21.10
10276;DHT22;5183;51.190;6.820;2023-03-01T03:19:48;-2.50;11.30
10276;DHT22;5183;51.190;6.820;2023-03-01T03:22:15;-2.40;16.60
10276;DHT22;5183;51.190;6.820;2023-03-01T03:24:42;-2.40;12.10
10276;DHT22;5183;51.190;6.820;2023-03-01T03:27:09;-2.40;8.70
10276;DHT22;5183;51.190;6.820;2023-03-01T03:29:36;-2.40;9.70
10276;DHT22;5183;51.190;6.820;2023-03-01T03:32:03;-2.50;10.20
10276;DHT22;5183;51.190;6.820;2023-03-01T03:34:31;-2.50;10.00
10276;DHT22;5183;51.190;6.820;2023-03-01T03:36:58;-2.50;9.80
10276;DHT22;5183;51.190;6.820;2023-03-01T03:39:25;-2.60;14.20
10276;DHT22;5183;51.190;6.820;2023-03-01T03:41:53;-2.60;15.30
10276;DHT22;5183;51.190;6.820;2023-03-01T03:44:20;-2.60;18.30
10276;DHT22;5183;51.190;6.820;2023-03-01T03:46:46;-2.60;22.90
10276;DHT22;5183;51.190;6.820;2023-03-01T03:49:13;-2.60;26.30
10276;DHT22;5183;51.190;6.820;2023-03-01T03:51:41;-2.50;27.60
10276;DHT22;5183;51.190;6.820;2023-03-01T03:54:08;-2.60;16.40
10276;DHT22;5183;51.190;6.820;2023-03-01T03:56:36;-2.60;13.60
10276;DHT22;5183;51.190;6.820;2023-03-01T03:59:02;-2.70;18.50
10276;DHT22;5183;51.190;6.820;2023-03-01T04:01:29;-2.70;20.80
10276;DHT22;5183;51.190;6.820;2023-03-01T04:03:56;-2.70;32.50
10276;DHT22;5183;51.190;6.820;2023-03-01T04:06:29;-2.60;33.70
10276;DHT22;5183;51.190;6.820;2023-03-01T04:08:57;-2.70;25.90
10276;DHT22;5183;51.190;6.820;2023-03-01T04:11:26;-2.70;27.80
10276;DHT22;5183;51.190;6.820;2023-03-01T04:13:57;-2.70;29.40
10276;DHT22;5183;51.190;6.820;2023-03-01T04:16:24;-2.60;26.90
10276;DHT22;5183;51.190;6.820;2023-03-01T04:18:51;-2.60;14.60
10276;DHT22;5183;51.190;6.820;2023-03-01T04:21:20;-2.70;17.80
10276;DHT22;5183;51.190;6.820;2023-03-01T04:23:47;-2.80;19.10
10276;DHT22;5183;51.190;6.820;2023-03-01T04:26:19;-2.80;32.70
10276;DHT22;5183;51.190;6.820;2023-03-01T04:28:46;-2.70;35.40
10276;DHT22;5183;51.190;6.820;2023-03-01T04:31:17;-2.70;32.90
10276;DHT22;5183;51.190;6.820;2023-03-01T04:33:48;-2.80;29.30
10276;DHT22;5183;51.190;6.820;2023-03-01T04:36:17;-2.70;32.90
10276;DHT22;5183;51.190;6.820;2023-03-01T04:38:44;-2.70;25.80
10276;DHT22;5183;51.190;6.820;2023-03-01T04:41:13;-2.70;22.80
10276;DHT22;5183;51.190;6.820;2023-03-01T04:43:41;-2.80;24.60
10276;DHT22;5183;51.190;6.820;2023-03-01T04:46:12;-2.80;26.10
10276;DHT22;5183;51.190;6.820;2023-03-01T04:48:40;-2.90;18.80
10276;DHT22;5183;51.190;6.820;2023-03-01T04:51:07;-2.90;30.60
10276;DHT22;5183;51.190;6.820;2023-03-01T04:53:34;-3.00;23.80
10276;DHT22;5183;51.190;6.820;2023-03-01T04:56:02;-3.00;37.80
10276;DHT22;5183;51.190;6.820;2023-03-01T04:58:29;-3.00;48.00
10276;DHT22;5183;51.190;6.820;2023-03-01T05:00:58;-3.00;41.70
10276;DHT22;5183;51.190;6.820;2023-03-01T05:03:24;-3.10;41.50
10276;DHT22;5183;51.190;6.820;2023-03-01T05:05:52;-3.10;60.30
10276;DHT22;5183;51.190;6.820;2023-03-01T05:08:19;-3.00;48.00
10276;DHT22;5183;51.190;6.820;2023-03-01T05:10:48;-2.90;40.20
10276;DHT22;5183;51.190;6.820;2023-03-01T05:13:15;-3.00;19.30
10276;DHT22;5183;51.190;6.820;2023-03-01T05:15:47;-3.00;38.90
10276;DHT22;5183;51.190;6.820;2023-03-01T05:18:15;-3.10;33.20
10276;DHT22;5183;51.190;6.820;2023-03-01T05:20:42;-3.10;38.50
10276;DHT22;5183;51.190;6.820;2023-03-01T05:23:10;-3.10;48.20
10276;DHT22;5183;51.190;6.820;2023-03-01T05:25:37;-3.20;52.90
10276;DHT22;5183;51.190;6.820;2023-03-01T05:28:06;-3.10;58.60
10276;DHT22;5183;51.190;6.820;2023-03-01T05:30:35;-3.10;49.80
10276;DHT22;5183;51.190;6.820;2023-03-01T05:33:05;-3.10;71.40
10276;DHT22;5183;51.190;6.820;2023-03-01T05:35:40;-3.00;38.80
10276;DHT22;5183;51.190;6.820;2023-03-01T05:38:08;-3.00;41.40
10276;DHT22;5183;51.190;6.820;2023-03-01T05:40:35;-3.00;45.60
10276;DHT22;5183;51.190;6.820;2023-03-01T05:43:02;-2.90;25.40
10276;DHT22;5183;51.190;6.820;2023-03-01T05:45:31;-2.90;27.50
10276;DHT22;5183;51.190;6.820;2023-03-01T05:47:59;-2.90;24.60
10276;DHT22;5183;51.190;6.820;2023-03-01T05:50:27;-2.80;14.90
10276;DHT22;5183;51.190;6.820;2023-03-01T05:53:00;-2.80;7.80
10276;DHT22;5183;51.190;6.820;2023-03-01T05:55:28;-2.90;1.90
10276;DHT22;5183;51.190;6.820;2023-03-01T05:57:57;-2.90;12.00
10276;DHT22;5183;51.190;6.820;2023-03-01T06:00:24;-2.90;23.00
10276;DHT22;5183;51.190;6.820;2023-03-01T06:02:53;-2.90;8.50
10276;DHT22;5183;51.190;6.820;2023-03-01T06:05:20;-2.90;12.00
10276;DHT22;5183;51.190;6.820;2023-03-01T06:07:47;-3.00;20.30
10276;DHT22;5183;51.190;6.820;2023-03-01T06:10:18;-2.90;22.40
10276;DHT22;5183;51.190;6.820;2023-03-01T06:12:45;-2.90;15.80
10276;DHT22;5183;51.190;6.820;2023-03-01T06:15:13;-2.80;9.80
10276;DHT22;5183;51.190;6.820;2023-03-01T06:17:42;-2.70;15.40
10276;DHT22;5183;51.190;6.820;2023-03-01T06:20:11;-2.50;1.00
10276;DHT22;5183;51.190;6.820;2023-03-01T06:22:39;-2.60;1.00
10276;DHT22;5183;51.190;6.820;2023-03-01T06:25:07;-2.60;1.00
10276;DHT22;5183;51.190;6.820;2023-03-01T06:27:36;-2.60;1.00
10276;DHT22;5183;51.190;6.820;2023-03-01T06:30:03;-2.60;1.00
10276;DHT22;5183;51.190;6.820;2023-03-01T06:32:30;-2.50;1.00
10276;DHT22;5183;51.190;6.820;2023-03-01T06:34:57;-2.50;1.00
10276;DHT22;5183;51.190;6.820;2023-03-01T06:37:24;-2.50;1.00
10276;DHT22;5183;51.190;6.820;2023-03-01T06:39:51;-2.50;1.00
10276;DHT22;5183;51.190;6.820;2023-03-01T06:42:18;-2.60;1.00
10276;DHT22;5183;51.190;6.820;2023-03-01T06:44:46;-2.60;1.00
10276;DHT22;5183;51.190;6.820;2023-03-01T06:47:13;-2.50;1.00
10276;DHT22;5183;51.190;6.820;2023-03-01T06:49:41;-2.40;1.00
10276;DHT22;5183;51.190;6.820;2023-03-01T06:52:07;-2.40;1.00
10276;DHT22;5183;51.190;6.820;2023-03-01T06:54:34;-2.40;1.00
10276;DHT22;5183;51.190;6.820;2023-03-01T06:57:01;-2.40;1.00
10276;DHT22;5183;51.190;6.820;2023-03-01T06:59:28;-2.30;1.00
10276;DHT22;5183;51.190;6.820;2023-03-01T07:01:56;-2.40;1.00
10276;DHT22;5183;51.190;6.820;2023-03-01T07:04:23;-2.40;1.00
10276;DHT22;5183;51.190;6.820;2023-03-01T07:06:50;-2.30;1.00
10276;DHT22;5183;51.190;6.820;2023-03-01T07:09:20;-2.40;1.00
10276;DHT22;5183;51.190;6.820;2023-03-01T07:11:47;-2.40;1.00
10276;DHT22;5183;51.190;6.820;2023-03-01T07:14:14;-2.30;1.00
10276;DHT22;5183;51.190;6.820;2023-03-01T07:16:41;-2.30;1.00
10276;DHT22;5183;51.190;6.820;2023-03-01T07:19:09;-2.20;1.00
10276;DHT22;5183;51.190;6.820;2023-03-01T07:21:36;-2.20;1.00
10276;DHT22;5183;51.190;6.820;2023-03-01T07:24:04;-2.20;1.00
10276;DHT22;5183;51.190;6.820;2023-03-01T07:26:31;-2.10;1.00
10276;DHT22;5183;51.190;6.820;2023-03-01T07:28:59;-2.00;1.00
10276;DHT22;5183;51.190;6.820;2023-03-01T07:31:26;-1.80;1.00
10276;DHT22;5183;51.190;6.820;2023-03-01T07:33:54;-1.70;1.00
10276;DHT22;5183;51.190;6.820;2023-03-01T07:36:22;-1.60;1.00
10276;DHT22;5183;51.190;6.820;2023-03-01T07:38:49;-1.60;1.00
10276;DHT22;5183;51.190;6.820;2023-03-01T07:41:16;-1.50;1.00
10276;DHT22;5183;51.190;6.820;2023-03-01T07:43:43;-1.50;1.00
10276;DHT22;5183;51.190;6.820;2023-03-01T07:46:10;-1.50;1.00
10276;DHT22;5183;51.190;6.820;2023-03-01T07:48:37;-1.40;1.00
10276;DHT22;5183;51.190;6.820;2023-03-01T07:51:05;-1.30;1.00
10276;DHT22;5183;51.190;6.820;2023-03-01T07:53:34;-1.40;1.00
10276;DHT22;5183;51.190;6.820;2023-03-01T07:56:02;-1.30;1.00
10276;DHT22;5183;51.190;6.820;2023-03-01T07:58:29;-1.40;1.00
10276;DHT22;5183;51.190;6.820;2023-03-01T08:00:56;-1.30;1.00
10276;DHT22;5183;51.190;6.820;2023-03-01T08:03:23;-1.20;1.00
10276;DHT22;5183;51.190;6.820;2023-03-01T08:05:49;-1.20;1.00
10276;DHT22;5183;51.190;6.820;2023-03-01T08:08:16;-1.20;1.00
10276;DHT22;5183;51.190;6.820;2023-03-01T08:10:44;-1.10;1.00
10276;DHT22;5183;51.190;6.820;2023-03-01T08:13:11;-1.00;1.00
10276;DHT22;5183;51.190;6.820;2023-03-01T08:15:38;-0.80;1.00
10276;DHT22;5183;51.190;6.820;2023-03-01T08:18:05;-0.80;1.00
10276;DHT22;5183;51.190;6.820;2023-03-01T08:20:32;-0.70;1.00
10276;DHT22;5183;51.190;6.820;2023-03-01T08:22:59;-0.60;1.00
10276;DHT22;5183;51.190;6.820;2023-03-01T08:25:26;-0.40;1.00
10276;DHT22;5183;51.190;6.820;2023-03-01T08:27:54;-0.30;1.00
10276;DHT22;5183;51.190;6.820;2023-03-01T08:30:21;-0.30;1.00
10276;DHT22;5183;51.190;6.820;2023-03-01T08:32:50;-0.20;1.00
10276;DHT22;5183;51.190;6.820;2023-03-01T08:35:17;-0.10;1.00
10276;DHT22;5183;51.190;6.820;2023-03-01T08:37:44;0.10;1.00
10276;DHT22;5183;51.190;6.820;2023-03-01T08:40:12;0.00;1.00
10276;DHT22;5183;51.190;6.820;2023-03-01T08:42:39;0.10;1.00
10276;DHT22;5183;51.190;6.820;2023-03-01T08:45:08;0.00;1.00
10276;DHT22;5183;51.190;6.820;2023-03-01T08:47:36;0.20;1.00
10276;DHT22;5183;51.190;6.820;2023-03-01T08:50:04;0.20;1.00
10276;DHT22;5183;51.190;6.820;2023-03-01T08:52:32;0.30;1.00
10276;DHT22;5183;51.190;6.820;2023-03-01T08:54:59;0.40;1.00
10276;DHT22;5183;51.190;6.820;2023-03-01T08:57:27;0.50;1.00
10276;DHT22;5183;51.190;6.820;2023-03-01T08:59:54;0.50;1.00
10276;DHT22;5183;51.190;6.820;2023-03-01T09:02:23;0.50;1.00
10276;DHT22;5183;51.190;6.820;2023-03-01T09:04:49;0.60;1.00
10276;DHT22;5183;51.190;6.820;2023-03-01T09:07:16;0.60;1.00
10276;DHT22;5183;51.190;6.820;2023-03-01T09:09:43;0.80;1.00
10276;DHT22;5183;51.190;6.820;2023-03-01T09:12:10;0.80;1.00
10276;DHT22;5183;51.190;6.820;2023-03-01T09:14:37;0.90;1.00
10276;DHT22;5183;51.190;6.820;2023-03-01T09:17:04;0.90;1.00
10276;DHT22;5183;51.190;6.820;2023-03-01T09:19:32;0.90;1.00
10276;DHT22;5183;51.190;6.820;2023-03-01T09:21:59;0.80;1.00
10276;DHT22;5183;51.190;6.820;2023-03-01T09:24:26;0.90;1.00
10276;DHT22;5183;51.190;6.820;2023-03-01T09:26:54;0.90;1.00
10276;DHT22;5183;51.190;6.820;2023-03-01T09:29:21;1.00;1.00
10276;DHT22;5183;51.190;6.820;2023-03-01T09:31:49;1.30;1.00
10276;DHT22;5183;51.190;6.820;2023-03-01T09:34:15;1.40;1.00
10276;DHT22;5183;51.190;6.820;2023-03-01T09:36:49;1.50;1.00
10276;DHT22;5183;51.190;6.820;2023-03-01T09:39:17;1.50;1.00
10276;DHT22;5183;51.190;6.820;2023-03-01T09:41:49;1.60;1.00
10276;DHT22;5183;51.190;6.820;2023-03-01T09:44:38;1.60;1.00
10276;DHT22;5183;51.190;6.820;2023-03-01T09:47:09;1.80;1.00
10276;DHT22;5183;51.190;6.820;2023-03-01T09:49:41;1.90;1.00
10276;DHT22;5183;51.190;6.820;2023-03-01T09:52:21;2.00;1.00
10276;DHT22;5183;51.190;6.820;2023-03-01T09:54:54;2.00;1.00
10276;DHT22;5183;51.190;6.820;2023-03-01T09:57:28;2.10;1.00
10276;DHT22;5183;51.190;6.820;2023-03-01T10:00:03;2.20;1.00
10276;DHT22;5183;51.190;6.820;2023-03-01T10:02:40;2.30;1.00
10276;DHT22;5183;51.190;6.820;2023-03-01T10:05:41;2.20;1.00
10276;DHT22;5183;51.190;6.820;2023-03-01T10:08:34;2.40;1.00
10276;DHT22;5183;51.190;6.820;2023-03-01T10:11:05;2.30;1.00
10276;DHT22;5183;51.190;6.820;2023-03-01T10:13:37;2.30;1.00
10276;DHT22;5183;51.190;6.820;2023-03-01T10:16:12;2.30;1.00
10276;DHT22;5183;51.190;6.820;2023-03-01T10:18:41;2.50;1.00
10276;DHT22;5183;51.190;6.820;2023-03-01T10:21:14;2.50;1.00
10276;DHT22;5183;51.190;6.820;2023-03-01T10:23:43;2.60;1.00
10276;DHT22;5183;51.190;6.820;2023-03-01T10:29:08;2.80;1.00
10276;DHT22;5183;51.190;6.820;2023-03-01T10:31:41;2.80;1.00
10276;DHT22;5183;51.190;6.820;2023-03-01T10:34:15;2.70;1.00
10276;DHT22;5183;51.190;6.820;2023-03-01T10:36:44;2.60;1.00
10276;DHT22;5183;51.190;6.820;2023-03-01T10:39:17;2.60;1.00
10276;DHT22;5183;51.190;6.820;2023-03-01T10:42:01;2.60;1.00
10276;DHT22;5183;51.190;6.820;2023-03-01T10:44:43;2.60;1.00
10276;DHT22;5183;51.190;6.820;2023-03-01T10:47:14;2.70;1.00
10276;DHT22;5183;51.190;6.820;2023-03-01T10:49:58;2.70;1.00
10276;DHT22;5183;51.190;6.820;2023-03-01T10:52:31;2.90;1.00
10276;DHT22;5183;51.190;6.820;2023-03-01T10:55:02;3.20;1.00
10276;DHT22;5183;51.190;6.820;2023-03-01T10:57:32;3.20;1.00
10276;DHT22;5183;51.190;6.820;2023-03-01T11:00:23;3.30;1.00
10276;DHT22;5183;51.190;6.820;2023-03-01T11:03:02;3.40;1.00
10276;DHT22;5183;51.190;6.820;2023-03-01T11:05:29;3.50;1.00
10276;DHT22;5183;51.190;6.820;2023-03-01T11:08:00;3.50;1.00
10276;DHT22;5183;51.190;6.820;2023-03-01T11:10:30;3.60;1.00
10276;DHT22;5183;51.190;6.820;2023-03-01T11:13:07;3.70;1.00
10276;DHT22;5183;51.190;6.820;2023-03-01T11:15:34;3.60;1.00
10276;DHT22;5183;51.190;6.820;2023-03-01T11:18:01;3.70;1.00
10276;DHT22;5183;51.190;6.820;2023-03-01T11:20:30;3.80;1.00
10276;DHT22;5183;51.190;6.820;2023-03-01T11:23:01;3.90;1.00
10276;DHT22;5183;51.190;6.820;2023-03-01T11:25:33;4.00;1.00
10276;DHT22;5183;51.190;6.820;2023-03-01T11:28:03;4.10;1.00
10276;DHT22;5183;51.190;6.820;2023-03-01T11:30:34;4.10;1.00
10276;DHT22;5183;51.190;6.820;2023-03-01T11:33:11;4.20;1.00
10276;DHT22;5183;51.190;6.820;2023-03-01T11:35:44;4.40;1.00
10276;DHT22;5183;51.190;6.820;2023-03-01T11:38:20;4.50;1.00
10276;DHT22;5183;51.190;6.820;2023-03-01T11:40:52;4.60;1.00
10276;DHT22;5183;51.190;6.820;2023-03-01T11:43:24;4.70;1.00
10276;DHT22;5183;51.190;6.820;2023-03-01T11:46:20;4.70;1.00
10276;DHT22;5183;51.190;6.820;2023-03-01T11:48:59;4.80;1.00
10276;DHT22;5183;51.190;6.820;2023-03-01T11:51:40;5.00;1.00
10276;DHT22;5183;51.190;6.820;2023-03-01T11:54:21;5.10;1.00
10276;DHT22;5183;51.190;6.820;2023-03-01T11:56:55;5.20;1.00
10276;DHT22;5183;51.190;6.820;2023-03-01T12:00:03;5.30;1.00
10276;DHT22;5183;51.190;6.820;2023-03-01T12:02:55;5.60;1.00
10276;DHT22;5183;51.190;6.820;2023-03-01T12:05:55;5.70;1.00
10276;DHT22;5183;51.190;6.820;2023-03-01T12:08:33;5.80;1.00
10276;DHT22;5183;51.190;6.820;2023-03-01T12:11:10;5.90;1.00
10276;DHT22;5183;51.190;6.820;2023-03-01T12:14:04;6.00;1.00
10276;DHT22;5183;51.190;6.820;2023-03-01T12:16:58;6.20;1.00
10276;DHT22;5183;51.190;6.820;2023-03-01T12:19:37;6.30;1.00
10276;DHT22;5183;51.190;6.820;2023-03-01T12:22:17;6.30;1.00
10276;DHT22;5183;51.190;6.820;2023-03-01T12:25:10;6.20;1.00
10276;DHT22;5183;51.190;6.820;2023-03-01T12:27:55;6.40;1.00
10276;DHT22;5183;51.190;6.820;2023-03-01T12:30:35;6.60;1.00
10276;DHT22;5183;51.190;6.820;2023-03-01T12:33:17;6.70;1.00
10276;DHT22;5183;51.190;6.820;2023-03-01T12:38:41;6.90;1.00
10276;DHT22;5183;51.190;6.820;2023-03-01T12:41:27;7.00;1.00
10276;DHT22;5183;51.190;6.820;2023-03-01T12:44:15;7.10;1.00
10276;DHT22;5183;51.190;6.820;2023-03-01T12:47:04;7.20;1.00
10276;DHT22;5183;51.190;6.820;2023-03-01T12:49:35;7.20;1.00
10276;DHT22;5183;51.190;6.820;2023-03-01T12:52:11;7.30;1.00
10276;DHT22;5183;51.190;6.820;2023-03-01T12:54:41;7.50;1.00
10276;DHT22;5183;51.190;6.820;2023-03-01T12:57:14;7.60;1.00
10276;DHT22;5183;51.190;6.820;2023-03-01T12:59:50;7.70;1.00
10276;DHT22;5183;51.190;6.820;2023-03-01T13:02:24;7.80;1.00
10276;DHT22;5183;51.190;6.820;2023-03-01T13:05:01;7.80;1.00
10276;DHT22;5183;51.190;6.820;2023-03-01T13:07:37;7.90;1.00
10276;DHT22;5183;51.190;6.820;2023-03-01T13:10:17;8.00;1.00
10276;DHT22;5183;51.190;6.820;2023-03-01T13:12:52;7.90;1.00
10276;DHT22;5183;51.190;6.820;2023-03-01T13:15:30;7.90;1.00
10276;DHT22;5183;51.190;6.820;2023-03-01T13:18:00;8.00;1.00
10276;DHT22;5183;51.190;6.820;2023-03-01T13:20:32;8.20;1.00
10276;DHT22;5183;51.190;6.820;2023-03-01T13:23:07;8.20;1.00
10276;DHT22;5183;51.190;6.820;2023-03-01T13:26:03;8.20;1.00
10276;DHT22;5183;51.190;6.820;2023-03-01T13:28:49;8.30;1.00
10276;DHT22;5183;51.190;6.820;2023-03-01T13:35:01;8.40;1.00
10276;DHT22;5183;51.190;6.820;2023-03-01T13:37:35;8.50;1.00
10276;DHT22;5183;51.190;6.820;2023-03-01T13:40:58;8.50;1.00
10276;DHT22;5183;51.190;6.820;2023-03-01T13:43:31;8.80;1.00
10276;DHT22;5183;51.190;6.820;2023-03-01T13:46:00;8.50;1.00
10276;DHT22;5183;51.190;6.820;2023-03-01T13:48:30;8.50;1.00
10276;DHT22;5183;51.190;6.820;2023-03-01T13:51:02;8.70;1.00
10276;DHT22;5183;51.190;6.820;2023-03-01T13:53:33;8.80;1.00
10276;DHT22;5183;51.190;6.820;2023-03-01T13:56:02;8.70;1.00
10276;DHT22;5183;51.190;6.820;2023-03-01T13:58:30;8.80;1.00
10276;DHT22;5183;51.190;6.820;2023-03-01T14:01:00;8.80;1.00
10276;DHT22;5183;51.190;6.820;2023-03-01T14:03:28;9.10;1.00
10276;DHT22;5183;51.190;6.820;2023-03-01T14:06:06;9.40;1.00
10276;DHT22;5183;51.190;6.820;2023-03-01T14:08:35;9.50;1.00
10276;DHT22;5183;51.190;6.820;2023-03-01T14:11:18;9.40;1.00
10276;DHT22;5183;51.190;6.820;2023-03-01T14:14:04;9.50;1.00
10276;DHT22;5183;51.190;6.820;2023-03-01T14:16:40;9.30;1.00
10276;DHT22;5183;51.190;6.820;2023-03-01T14:19:16;9.30;1.00
10276;DHT22;5183;51.190;6.820;2023-03-01T14:21:47;9.40;1.00
10276;DHT22;5183;51.190;6.820;2023-03-01T14:24:18;9.60;1.00
10276;DHT22;5183;51.190;6.820;2023-03-01T14:26:45;9.60;1.00
10276;DHT22;5183;51.190;6.820;2023-03-01T14:29:26;9.70;1.00
10276;DHT22;5183;51.190;6.820;2023-03-01T14:31:53;9.60;1.00
10276;DHT22;5183;51.190;6.820;2023-03-01T14:34:22;9.60;1.00
10276;DHT22;5183;51.190;6.820;2023-03-01T14:36:50;9.60;1.00
10276;DHT22;5183;51.190;6.820;2023-03-01T14:39:19;9.70;1.00
10276;DHT22;5183;51.190;6.820;2023-03-01T14:41:46;9.80;1.00
10276;DHT22;5183;51.190;6.820;2023-03-01T14:44:16;9.70;1.00
10276;DHT22;5183;51.190;6.820;2023-03-01T14:46:45;9.70;1.00
10276;DHT22;5183;51.190;6.820;2023-03-01T14:49:15;9.80;1.00
10276;DHT22;5183;51.190;6.820;2023-03-01T14:51:49;9.80;1.00
10276;DHT22;5183;51.190;6.820;2023-03-01T14:54:23;9.70;1.00
10276;DHT22;5183;51.190;6.820;2023-03-01T14:56:51;9.70;1.00
10276;DHT22;5183;51.190;6.820;2023-03-01T14:59:21;9.50;1.00
10276;DHT22;5183;51.190;6.820;2023-03-01T15:01:48;9.50;1.00
10276;DHT22;5183;51.190;6.820;2023-03-01T15:04:15;9.60;1.00
10276;DHT22;5183;51.190;6.820;2023-03-01T15:06:43;9.50;1.00
10276;DHT22;5183;51.190;6.820;2023-03-01T15:09:14;9.40;1.00
10276;DHT22;5183;51.190;6.820;2023-03-01T15:11:44;9.60;1.00
10276;DHT22;5183;51.190;6.820;2023-03-01T15:14:39;9.60;1.00
10276;DHT22;5183;51.190;6.820;2023-03-01T15:17:21;9.70;1.00
10276;DHT22;5183;51.190;6.820;2023-03-01T15:19:52;9.60;1.00
10276;DHT22;5183;51.190;6.820;2023-03-01T15:22:20;9.50;1.00
10276;DHT22;5183;51.190;6.820;2023-03-01T15:24:48;9.40;1.00
10276;DHT22;5183;51.190;6.820;2023-03-01T15:27:18;9.50;1.00
10276;DHT22;5183;51.190;6.820;2023-03-01T15:29:49;9.50;1.00
10276;DHT22;5183;51.190;6.820;2023-03-01T15:32:28;9.50;1.00
10276;DHT22;5183;51.190;6.820;2023-03-01T15:34:56;9.50;1.00
10276;DHT22;5183;51.190;6.820;2023-03-01T15:37:39;9.60;1.00
10276;DHT22;5183;51.190;6.820;2023-03-01T15:40:21;9.60;1.00
10276;DHT22;5183;51.190;6.820;2023-03-01T15:42:51;9.70;1.00
10276;DHT22;5183;51.190;6.820;2023-03-01T15:45:24;9.60;1.00
10276;DHT22;5183;51.190;6.820;2023-03-01T15:47:54;9.50;1.00
10276;DHT22;5183;51.190;6.820;2023-03-01T15:50:25;9.50;1.00
10276;DHT22;5183;51.190;6.820;2023-03-01T15:52:53;9.50;1.00
10276;DHT22;5183;51.190;6.820;2023-03-01T15:55:22;9.60;1.00
10276;DHT22;5183;51.190;6.820;2023-03-01T15:57:58;9.30;1.00
10276;DHT22;5183;51.190;6.820;2023-03-01T16:00:27;9.30;1.00
10276;DHT22;5183;51.190;6.820;2023-03-01T16:02:54;9.20;1.00
10276;DHT22;5183;51.190;6.820;2023-03-01T16:05:23;9.10;1.00
10276;DHT22;5183;51.190;6.820;2023-03-01T16:07:50;9.10;1.00
10276;DHT22;5183;51.190;6.820;2023-03-01T16:10:17;9.10;1.00
10276;DHT22;5183;51.190;6.820;2023-03-01T16:12:44;9.10;1.00
10276;DHT22;5183;51.190;6.820;2023-03-01T16:15:16;8.90;1.00
10276;DHT22;5183;51.190;6.820;2023-03-01T16:17:43;8.80;1.00
10276;DHT22;5183;51.190;6.820;2023-03-01T16:20:11;8.80;1.00
10276;DHT22;5183;51.190;6.820;2023-03-01T16:22:37;8.70;1.00
10276;DHT22;5183;51.190;6.820;2023-03-01T16:25:05;8.60;1.00
10276;DHT22;5183;51.190;6.820;2023-03-01T16:27:33;8.50;1.00
10276;DHT22;5183;51.190;6.820;2023-03-01T16:30:00;8.50;1.00
10276;DHT22;5183;51.190;6.820;2023-03-01T16:32:28;8.40;1.00
10276;DHT22;5183;51.190;6.820;2023-03-01T16:34:55;8.30;1.00
10276;DHT22;5183;51.190;6.820;2023-03-01T16:37:22;8.20;1.00
10276;DHT22;5183;51.190;6.820;2023-03-01T16:39:49;8.10;1.00